Time,TemperatureF,DewpointF,PressureIn,WindDirection,WindDirectionDegrees,WindSpeedMPH,WindSpeedGustMPH,Humidity,HourlyPrecipIn,Conditions,Clouds,dailyrainin,SoftwareType,DateUTC
2013-03-31 00:00:00,40.3,21.7,30.14,SE,135,0.7,1.6,47,0.00,,,0.00,pywws,2013-03-31 04:00:00,
2013-03-31 00:01:00,40.3,21.7,30.14,SE,135,0.7,1.6,47,0.00,,,0.00,pywws,2013-03-31 04:01:00,
2013-03-31 00:02:00,40.3,21.7,30.14,SE,135,0.7,1.6,47,0.00,,,0.00,pywws,2013-03-31 04:02:00,
2013-03-31 00:09:00,40.1,21.5,30.14,SE,135,0.7,1.6,47,0.00,,,0.00,pywws,2013-03-31 04:09:00,
2013-03-31 00:15:00,40.5,21.3,30.14,SE,135,0.7,1.6,46,0.00,,,0.00,pywws,2013-03-31 04:15:00,
2013-03-31 00:21:00,40.5,21.8,30.14,South,180,1.6,1.6,47,0.00,,,0.00,pywws,2013-03-31 04:21:00,
2013-03-31 00:26:00,39.7,21.2,30.14,SE,135,0.7,1.6,47,0.00,,,0.00,pywws,2013-03-31 04:26:00,
2013-03-31 00:32:00,39.9,20.8,30.14,SE,135,0.7,1.6,46,0.00,,,0.00,pywws,2013-03-31 04:32:00,
2013-03-31 00:37:00,39.7,21.2,30.14,East,90,0.7,1.6,47,0.00,,,0.00,pywws,2013-03-31 04:37:00,
2013-03-31 00:43:00,39.6,21.0,30.14,SE,135,0.7,1.6,47,0.00,,,0.00,pywws,2013-03-31 04:43:00,
2013-03-31 00:49:00,39.6,21.0,30.14,SE,135,0.7,1.6,47,0.00,,,0.00,pywws,2013-03-31 04:49:00,
2013-03-31 00:54:00,39.4,20.8,30.14,East,90,0.7,1.6,47,0.00,,,0.00,pywws,2013-03-31 04:54:00,
2013-03-31 01:00:00,39.4,20.8,30.14,SE,135,0.7,1.6,47,0.00,,,0.00,pywws,2013-03-31 05:00:00,
2013-03-31 01:05:00,39.2,21.2,30.14,SE,135,0.7,1.6,48,0.00,,,0.00,pywws,2013-03-31 05:05:00,
2013-03-31 01:11:00,39.2,20.7,30.14,East,90,0.7,1.6,47,0.00,,,0.00,pywws,2013-03-31 05:11:00,
2013-03-31 01:16:00,39.0,21.5,30.14,SE,135,0.7,1.6,49,0.00,,,0.00,pywws,2013-03-31 05:16:00,
2013-03-31 01:22:00,38.5,21.5,30.14,SE,135,0.7,1.6,50,0.00,,,0.00,pywws,2013-03-31 05:22:00,
2013-03-31 01:28:00,37.9,21.4,30.13,SE,135,1.6,1.6,51,0.00,,,0.00,pywws,2013-03-31 05:28:00,
2013-03-31 01:34:00,37.4,21.9,30.13,SE,135,0.7,1.6,53,0.00,,,0.00,pywws,2013-03-31 05:34:00,
2013-03-31 01:40:00,37.0,20.1,30.14,SE,135,1.6,2.2,50,0.00,,,0.00,pywws,2013-03-31 05:40:00,
2013-03-31 01:45:00,37.0,20.6,30.13,SE,135,0.7,2.2,51,0.00,,,0.00,pywws,2013-03-31 05:45:00,
2013-03-31 01:51:00,36.9,20.4,30.13,SE,135,1.6,2.2,51,0.00,,,0.00,pywws,2013-03-31 05:51:00,
2013-03-31 01:56:00,36.7,20.3,30.13,SE,135,1.6,2.2,51,0.00,,,0.00,pywws,2013-03-31 05:56:00,
2013-03-31 02:01:00,36.7,20.3,30.13,SE,135,1.6,2.2,51,0.00,,,0.00,pywws,2013-03-31 06:01:00,
2013-03-31 02:07:00,36.7,20.7,30.13,South,180,0.7,1.6,52,0.00,,,0.00,pywws,2013-03-31 06:07:00,
2013-03-31 02:13:00,36.3,20.8,30.13,SE,135,0.7,1.6,53,0.00,,,0.00,pywws,2013-03-31 06:13:00,
2013-03-31 02:19:00,36.1,20.7,30.12,SE,135,0.7,1.6,53,0.00,,,0.00,pywws,2013-03-31 06:19:00,
2013-03-31 02:25:00,35.8,20.3,30.12,East,90,0.7,1.6,53,0.00,,,0.00,pywws,2013-03-31 06:25:00,
2013-03-31 02:30:00,35.2,20.7,30.13,East,90,0.7,1.6,55,0.00,,,0.00,pywws,2013-03-31 06:30:00,
2013-03-31 02:36:00,35.1,21.0,30.13,East,90,0.7,1.6,56,0.00,,,0.00,pywws,2013-03-31 06:36:00,
2013-03-31 02:42:00,34.7,21.0,30.12,East,90,0.7,1.6,57,0.00,,,0.00,pywws,2013-03-31 06:42:00,
2013-03-31 02:47:00,34.7,21.5,30.12,East,90,0.7,1.6,58,0.00,,,0.00,pywws,2013-03-31 06:47:00,
2013-03-31 02:53:00,34.5,21.3,30.12,East,90,0.7,1.6,58,0.00,,,0.00,pywws,2013-03-31 06:53:00,
2013-03-31 02:59:00,34.3,21.5,30.12,East,90,0.7,1.6,59,0.00,,,0.00,pywws,2013-03-31 06:59:00,
2013-03-31 03:05:00,34.2,21.7,30.12,East,90,0.7,1.6,60,0.00,,,0.00,pywws,2013-03-31 07:05:00,
2013-03-31 03:10:00,34.0,22.0,30.12,East,90,0.7,1.6,61,0.00,,,0.00,pywws,2013-03-31 07:10:00,
2013-03-31 03:16:00,34.0,22.4,30.12,East,90,0.7,1.6,62,0.00,,,0.00,pywws,2013-03-31 07:16:00,
2013-03-31 03:22:00,33.8,22.2,30.11,East,90,0.0,0.7,62,0.00,,,0.00,pywws,2013-03-31 07:22:00,
2013-03-31 03:29:00,33.4,22.2,30.11,NE,45,0.0,0.0,63,0.00,,,0.00,pywws,2013-03-31 07:29:00,
2013-03-31 03:34:00,33.1,21.9,30.11,East,90,0.0,0.0,63,0.00,,,0.00,pywws,2013-03-31 07:34:00,
2013-03-31 03:40:00,32.9,21.7,30.11,East,90,0.0,0.7,63,0.00,,,0.00,pywws,2013-03-31 07:40:00,
2013-03-31 03:45:00,32.7,21.5,30.11,North,0,0.0,0.0,63,0.00,,,0.00,pywws,2013-03-31 07:45:00,
2013-03-31 03:51:00,32.5,21.4,30.11,West,270,0.7,1.6,63,0.00,,,0.00,pywws,2013-03-31 07:51:00,
2013-03-31 03:57:00,32.5,21.7,30.11,SW,225,0.7,1.6,64,0.00,,,0.00,pywws,2013-03-31 07:57:00,
2013-03-31 04:02:00,32.4,21.6,30.11,SW,225,0.0,0.0,64,0.00,,,0.00,pywws,2013-03-31 08:02:00,
2013-03-31 04:08:00,32.4,21.9,30.11,SW,225,0.0,0.7,65,0.00,,,0.00,pywws,2013-03-31 08:08:00,
2013-03-31 04:13:00,32.4,21.9,30.11,SW,225,0.7,1.6,65,0.00,,,0.00,pywws,2013-03-31 08:13:00,
2013-03-31 04:19:00,32.5,21.7,30.11,East,90,0.0,0.7,64,0.00,,,0.00,pywws,2013-03-31 08:19:00,
2013-03-31 04:25:00,32.9,22.1,30.11,East,90,2.2,2.2,64,0.00,,,0.00,pywws,2013-03-31 08:25:00,
2013-03-31 04:30:00,33.3,22.0,30.11,East,90,1.6,2.2,63,0.00,,,0.00,pywws,2013-03-31 08:30:00,
2013-03-31 04:36:00,33.8,21.8,30.10,East,90,1.6,2.2,61,0.00,,,0.00,pywws,2013-03-31 08:36:00,
2013-03-31 04:41:00,34.2,21.3,30.11,SE,135,0.7,1.6,59,0.00,,,0.00,pywws,2013-03-31 08:41:00,
2013-03-31 04:47:00,34.2,20.5,30.11,East,90,0.7,1.6,57,0.00,,,0.00,pywws,2013-03-31 08:47:00,
2013-03-31 04:53:00,33.8,20.6,30.11,ESE,112,0.7,1.6,58,0.00,,,0.00,pywws,2013-03-31 08:53:00,
2013-03-31 04:59:00,33.6,20.8,30.11,East,90,0.7,1.6,59,0.00,,,0.00,pywws,2013-03-31 08:59:00,
2013-03-31 05:05:00,33.4,21.1,30.11,East,90,0.0,0.7,60,0.00,,,0.00,pywws,2013-03-31 09:05:00,
2013-03-31 05:10:00,33.1,20.7,30.11,East,90,1.6,2.2,60,0.00,,,0.00,pywws,2013-03-31 09:10:00,
2013-03-31 05:16:00,32.7,20.8,30.11,East,90,0.0,1.6,61,0.00,,,0.00,pywws,2013-03-31 09:16:00,
2013-03-31 05:21:00,32.4,20.8,30.10,SE,135,0.7,1.6,62,0.00,,,0.00,pywws,2013-03-31 09:21:00,
2013-03-31 05:27:00,32.4,21.2,30.10,East,90,0.7,1.6,63,0.00,,,0.00,pywws,2013-03-31 09:27:00,
2013-03-31 05:33:00,32.2,21.4,30.10,East,90,0.7,2.2,64,0.00,,,0.00,pywws,2013-03-31 09:33:00,
2013-03-31 05:38:00,31.8,21.4,30.09,East,90,0.7,1.6,65,0.00,,,0.00,pywws,2013-03-31 09:38:00,
2013-03-31 05:44:00,31.8,21.8,30.10,South,180,0.7,1.6,66,0.00,,,0.00,pywws,2013-03-31 09:44:00,
2013-03-31 05:49:00,31.6,21.6,30.10,East,90,0.0,0.7,66,0.00,,,0.00,pywws,2013-03-31 09:49:00,
2013-03-31 05:55:00,31.5,21.8,30.10,East,90,0.7,1.6,67,0.00,,,0.00,pywws,2013-03-31 09:55:00,
2013-03-31 06:01:00,31.5,21.8,30.10,East,90,0.7,1.6,67,0.00,,,0.00,pywws,2013-03-31 10:01:00,
2013-03-31 06:06:00,31.5,21.8,30.09,East,90,0.7,1.6,67,0.00,,,0.00,pywws,2013-03-31 10:06:00,
2013-03-31 06:12:00,31.3,22.0,30.09,East,90,0.7,1.6,68,0.00,,,0.00,pywws,2013-03-31 10:12:00,
2013-03-31 06:17:00,31.1,21.8,30.09,East,90,0.7,2.2,68,0.00,,,0.00,pywws,2013-03-31 10:17:00,
2013-03-31 06:23:00,31.1,21.8,30.10,East,90,0.7,1.6,68,0.00,,,0.00,pywws,2013-03-31 10:23:00,
2013-03-31 06:29:00,31.1,21.8,30.09,ESE,112,1.6,2.2,68,0.00,,,0.00,pywws,2013-03-31 10:29:00,
2013-03-31 06:34:00,31.1,21.8,30.09,East,90,0.7,1.6,68,0.00,,,0.00,pywws,2013-03-31 10:34:00,
2013-03-31 06:40:00,31.3,22.0,30.09,East,90,0.7,1.6,68,0.00,,,0.00,pywws,2013-03-31 10:40:00,
2013-03-31 06:45:00,31.3,22.0,30.09,East,90,0.0,0.7,68,0.00,,,0.00,pywws,2013-03-31 10:45:00,
2013-03-31 06:51:00,31.5,22.1,30.09,ESE,112,1.6,2.2,68,0.00,,,0.00,pywws,2013-03-31 10:51:00,
2013-03-31 06:57:00,31.6,22.3,30.09,SE,135,1.6,2.2,68,0.00,,,0.00,pywws,2013-03-31 10:57:00,
2013-03-31 07:02:00,31.8,22.5,30.09,East,90,1.6,2.2,68,0.00,,,0.00,pywws,2013-03-31 11:02:00,
2013-03-31 07:08:00,32.0,22.3,30.09,East,90,1.6,2.2,67,0.00,,,0.00,pywws,2013-03-31 11:08:00,
2013-03-31 07:14:00,32.2,22.5,30.09,SE,135,1.6,2.2,67,0.00,,,0.00,pywws,2013-03-31 11:14:00,
2013-03-31 07:20:00,32.4,22.6,30.10,SE,135,1.6,2.2,67,0.00,,,0.00,pywws,2013-03-31 11:20:00,
2013-03-31 07:25:00,32.4,22.6,30.09,ESE,112,1.6,2.2,67,0.00,,,0.00,pywws,2013-03-31 11:25:00,
2013-03-31 07:31:00,32.5,22.5,30.09,ESE,112,1.6,2.2,66,0.00,,,0.00,pywws,2013-03-31 11:31:00,
2013-03-31 07:37:00,32.7,22.6,30.09,East,90,0.7,1.6,66,0.00,,,0.00,pywws,2013-03-31 11:37:00,
2013-03-31 07:42:00,32.9,22.8,30.09,East,90,1.6,2.2,66,0.00,,,0.00,pywws,2013-03-31 11:42:00,
2013-03-31 07:48:00,33.1,22.6,30.09,East,90,1.6,2.2,65,0.00,,,0.00,pywws,2013-03-31 11:48:00,
2013-03-31 07:54:00,33.3,22.8,30.09,East,90,0.7,1.6,65,0.00,,,0.00,pywws,2013-03-31 11:54:00,
2013-03-31 08:00:00,33.4,23.0,30.09,East,90,0.7,1.6,65,0.00,,,0.00,pywws,2013-03-31 12:00:00,
2013-03-31 08:05:00,33.8,22.9,30.09,East,90,1.6,2.2,64,0.00,,,0.00,pywws,2013-03-31 12:05:00,
2013-03-31 08:11:00,34.2,22.9,30.09,East,90,0.7,1.6,63,0.00,,,0.00,pywws,2013-03-31 12:11:00,
2013-03-31 08:16:00,34.5,23.2,30.09,East,90,0.7,1.6,63,0.00,,,0.00,pywws,2013-03-31 12:16:00,
2013-03-31 08:21:00,35.1,23.8,30.09,East,90,0.7,1.6,63,0.00,,,0.00,pywws,2013-03-31 12:21:00,
2013-03-31 08:27:00,35.6,23.5,30.09,East,90,0.7,1.6,61,0.00,,,0.00,pywws,2013-03-31 12:27:00,
2013-03-31 08:33:00,36.0,23.8,30.09,East,90,1.6,2.2,61,0.00,,,0.00,pywws,2013-03-31 12:33:00,
2013-03-31 08:38:00,36.7,24.5,30.08,East,90,0.7,2.2,61,0.00,,,0.00,pywws,2013-03-31 12:38:00,
2013-03-31 08:44:00,37.6,26.9,30.08,East,90,0.0,0.0,65,0.00,,,0.00,pywws,2013-03-31 12:44:00,
2013-03-31 08:49:00,39.2,28.1,30.08,East,90,1.6,2.2,64,0.00,,,0.00,pywws,2013-03-31 12:49:00,
2013-03-31 08:55:00,40.6,29.0,30.08,East,90,0.7,1.6,63,0.00,,,0.00,pywws,2013-03-31 12:55:00,
2013-03-31 09:01:00,41.4,28.9,30.08,SE,135,0.7,1.6,61,0.00,,,0.00,pywws,2013-03-31 13:01:00,
2013-03-31 09:06:00,42.4,29.5,30.08,East,90,0.7,1.6,60,0.00,,,0.00,pywws,2013-03-31 13:06:00,
2013-03-31 09:12:00,43.5,29.7,30.08,North,0,0.0,0.7,58,0.00,,,0.00,pywws,2013-03-31 13:12:00,
2013-03-31 09:17:00,44.8,30.1,30.08,NE,45,0.0,0.7,56,0.00,,,0.00,pywws,2013-03-31 13:17:00,
2013-03-31 09:23:00,46.2,31.0,30.08,West,270,0.7,1.6,55,0.00,,,0.00,pywws,2013-03-31 13:23:00,
2013-03-31 09:29:00,47.7,30.9,30.08,NW,315,0.0,0.7,52,0.00,,,0.00,pywws,2013-03-31 13:29:00,
2013-03-31 09:34:00,49.3,30.9,30.09,North,0,0.7,2.2,49,0.00,,,0.00,pywws,2013-03-31 13:34:00,
2013-03-31 09:40:00,50.2,30.2,30.09,South,180,0.7,2.2,46,0.00,,,0.00,pywws,2013-03-31 13:40:00,
2013-03-31 09:45:00,50.9,30.3,30.09,NW,315,3.1,5.4,45,0.00,,,0.00,pywws,2013-03-31 13:45:00,
2013-03-31 09:51:00,51.1,29.9,30.09,SW,225,1.6,3.1,44,0.00,,,0.00,pywws,2013-03-31 13:51:00,
2013-03-31 09:56:00,51.6,31.0,30.09,South,180,1.6,2.2,45,0.00,,,0.00,pywws,2013-03-31 13:56:00,
2013-03-31 10:01:00,51.8,29.4,30.09,North,0,0.7,2.2,42,0.00,,,0.00,pywws,2013-03-31 14:01:00,
2013-03-31 10:07:00,52.0,30.8,30.09,NW,315,2.2,3.8,44,0.00,,,0.00,pywws,2013-03-31 14:07:00,
2013-03-31 10:13:00,52.2,29.8,30.09,SSW,202,1.6,3.1,42,0.00,,,0.00,pywws,2013-03-31 14:13:00,
2013-03-31 10:18:00,52.2,28.6,30.09,West,270,3.1,4.5,40,0.00,,,0.00,pywws,2013-03-31 14:18:00,
2013-03-31 10:24:00,52.2,29.8,30.09,North,0,1.6,3.1,42,0.00,,,0.00,pywws,2013-03-31 14:24:00,
2013-03-31 10:29:00,52.5,28.9,30.09,West,270,2.2,3.8,40,0.00,,,0.00,pywws,2013-03-31 14:29:00,
2013-03-31 10:35:00,52.5,28.9,30.09,West,270,1.6,3.1,40,0.00,,,0.00,pywws,2013-03-31 14:35:00,
2013-03-31 10:41:00,52.5,27.7,30.09,NW,315,3.8,5.4,38,0.00,,,0.00,pywws,2013-03-31 14:41:00,
2013-03-31 10:46:00,52.0,28.4,30.09,NW,315,3.1,6.0,40,0.00,,,0.00,pywws,2013-03-31 14:46:00,
2013-03-31 10:52:00,52.0,29.6,30.09,West,270,2.2,3.1,42,0.00,,,0.00,pywws,2013-03-31 14:52:00,
2013-03-31 10:57:00,52.0,29.6,30.09,NW,315,3.1,4.5,42,0.00,,,0.00,pywws,2013-03-31 14:57:00,
2013-03-31 11:03:00,52.3,29.9,30.09,South,180,1.6,3.8,42,0.00,,,0.00,pywws,2013-03-31 15:03:00,
2013-03-31 11:09:00,52.5,30.7,30.08,SW,225,2.2,3.1,43,0.00,,,0.00,pywws,2013-03-31 15:09:00,
2013-03-31 11:14:00,53.2,31.3,30.08,South,180,2.2,3.8,43,0.00,,,0.00,pywws,2013-03-31 15:14:00,
2013-03-31 11:20:00,53.6,29.3,30.07,North,0,3.1,4.5,39,0.00,,,0.00,pywws,2013-03-31 15:20:00,
2013-03-31 11:25:00,54.3,31.1,30.08,SW,225,2.2,4.5,41,0.00,,,0.00,pywws,2013-03-31 15:25:00,
2013-03-31 11:31:00,54.9,31.0,30.08,NW,315,2.2,3.1,40,0.00,,,0.00,pywws,2013-03-31 15:31:00,
2013-03-31 11:37:00,55.4,28.9,30.08,NW,315,4.5,6.9,36,0.00,,,0.00,pywws,2013-03-31 15:37:00,
2013-03-31 11:42:00,55.2,29.4,30.07,SW,225,2.2,4.5,37,0.00,,,0.00,pywws,2013-03-31 15:42:00,
2013-03-31 11:48:00,55.4,28.9,30.07,East,90,3.1,4.5,36,0.00,,,0.00,pywws,2013-03-31 15:48:00,
2013-03-31 11:54:00,55.0,27.9,30.07,South,180,4.5,7.6,35,0.00,,,0.00,pywws,2013-03-31 15:54:00,
2013-03-31 12:00:00,54.7,26.9,30.07,South,180,3.8,5.4,34,0.00,,,0.00,pywws,2013-03-31 16:00:00,
2013-03-31 12:05:00,54.7,25.4,30.06,SE,135,2.2,5.4,32,0.00,,,0.00,pywws,2013-03-31 16:05:00,
2013-03-31 12:11:00,54.7,25.4,30.06,West,270,3.8,6.0,32,0.00,,,0.00,pywws,2013-03-31 16:11:00,
2013-03-31 12:17:00,55.2,26.6,30.06,SE,135,3.1,6.0,33,0.00,,,0.00,pywws,2013-03-31 16:17:00,
2013-03-31 12:22:00,55.2,24.3,30.06,NW,315,3.1,7.6,30,0.00,,,0.00,pywws,2013-03-31 16:22:00,
2013-03-31 12:27:00,55.2,25.1,30.05,NW,315,1.6,3.1,31,0.00,,,0.00,pywws,2013-03-31 16:27:00,
2013-03-31 12:33:00,55.4,24.5,30.05,SW,225,1.6,3.1,30,0.00,,,0.00,pywws,2013-03-31 16:33:00,
2013-03-31 12:38:00,55.4,25.3,30.05,NW,315,5.4,7.6,31,0.00,,,0.00,pywws,2013-03-31 16:38:00,
2013-03-31 12:44:00,55.2,25.1,30.05,North,0,1.6,3.1,31,0.00,,,0.00,pywws,2013-03-31 16:44:00,
2013-03-31 12:49:00,54.9,25.6,30.04,SW,225,1.6,4.5,32,0.00,,,0.00,pywws,2013-03-31 16:49:00,
2013-03-31 12:55:00,54.1,24.9,30.04,South,180,3.8,6.9,32,0.00,,,0.00,pywws,2013-03-31 16:55:00,
2013-03-31 13:01:00,54.0,25.5,30.04,SE,135,1.6,2.2,33,0.00,,,0.00,pywws,2013-03-31 17:01:00,
2013-03-31 13:06:00,55.0,28.6,30.03,SSE,158,3.8,5.4,36,0.00,,,0.00,pywws,2013-03-31 17:06:00,
2013-03-31 13:12:00,54.7,28.3,30.03,East,90,1.6,3.1,36,0.00,,,0.00,pywws,2013-03-31 17:12:00,
2013-03-31 13:17:00,55.0,29.9,30.03,South,180,3.8,6.9,38,0.00,,,0.00,pywws,2013-03-31 17:17:00,
2013-03-31 13:23:00,54.5,30.1,30.03,NW,315,3.1,3.8,39,0.00,,,0.00,pywws,2013-03-31 17:23:00,
2013-03-31 13:29:00,54.0,30.8,30.02,West,270,2.2,4.5,41,0.00,,,0.00,pywws,2013-03-31 17:29:00,
2013-03-31 13:34:00,54.3,31.1,30.02,South,180,3.1,6.0,41,0.00,,,0.00,pywws,2013-03-31 17:34:00,
2013-03-31 13:40:00,54.0,30.8,30.01,South,180,6.0,9.8,41,0.00,,,0.00,pywws,2013-03-31 17:40:00,
2013-03-31 13:45:00,53.8,31.2,30.01,South,180,4.5,6.0,42,0.00,,,0.00,pywws,2013-03-31 17:45:00,
2013-03-31 13:51:00,53.6,31.1,30.01,SE,135,2.2,4.5,42,0.00,,,0.00,pywws,2013-03-31 17:51:00,
2013-03-31 13:57:00,53.4,32.1,30.00,SE,135,5.4,9.2,44,0.00,,,0.00,pywws,2013-03-31 17:57:00,
2013-03-31 14:02:00,53.2,32.5,30.01,South,180,2.2,3.1,45,0.00,,,0.00,pywws,2013-03-31 18:02:00,
2013-03-31 14:08:00,52.9,32.7,30.00,East,90,3.8,6.9,46,0.00,,,0.00,pywws,2013-03-31 18:08:00,
2013-03-31 14:14:00,52.5,32.3,30.01,SW,225,3.8,7.6,46,0.00,,,0.00,pywws,2013-03-31 18:14:00,
2013-03-31 14:20:00,52.2,33.1,30.00,South,180,3.8,6.9,48,0.00,,,0.00,pywws,2013-03-31 18:20:00,
2013-03-31 14:25:00,52.0,32.9,30.00,South,180,3.8,6.0,48,0.00,,,0.00,pywws,2013-03-31 18:25:00,
2013-03-31 14:31:00,52.0,32.9,29.99,South,180,1.6,3.8,48,0.00,,,0.00,pywws,2013-03-31 18:31:00,
2013-03-31 14:37:00,52.0,32.9,29.99,SW,225,2.2,4.5,48,0.00,,,0.00,pywws,2013-03-31 18:37:00,
2013-03-31 14:42:00,52.2,33.1,29.99,West,270,2.2,5.4,48,0.00,,,0.00,pywws,2013-03-31 18:42:00,
2013-03-31 14:48:00,52.0,32.4,29.99,SW,225,6.9,9.2,47,0.00,,,0.00,pywws,2013-03-31 18:48:00,
2013-03-31 14:54:00,52.3,33.2,29.98,South,180,1.6,3.8,48,0.00,,,0.00,pywws,2013-03-31 18:54:00,
2013-03-31 15:00:00,52.9,32.7,29.98,SW,225,2.2,5.4,46,0.00,,,0.00,pywws,2013-03-31 19:00:00,
2013-03-31 15:05:00,52.5,32.3,29.98,South,180,4.5,6.9,46,0.00,,,0.00,pywws,2013-03-31 19:05:00,
2013-03-31 15:11:00,52.3,32.7,29.97,SW,225,1.6,3.1,47,0.00,,,0.00,pywws,2013-03-31 19:11:00,
2013-03-31 15:17:00,52.5,32.3,29.97,South,180,3.8,4.5,46,0.00,,,0.00,pywws,2013-03-31 19:17:00,
2013-03-31 15:22:00,52.0,32.4,29.98,South,180,2.2,3.8,47,0.00,,,0.00,pywws,2013-03-31 19:22:00,
2013-03-31 15:27:00,51.4,32.4,29.98,NW,315,1.6,4.5,48,0.00,,,0.00,pywws,2013-03-31 19:27:00,
2013-03-31 15:33:00,51.1,33.1,29.98,SW,225,1.6,3.1,50,0.00,,,0.00,pywws,2013-03-31 19:33:00,
2013-03-31 15:38:00,51.4,34.4,29.97,South,180,3.1,4.5,52,0.00,,,0.00,pywws,2013-03-31 19:38:00,
2013-03-31 15:44:00,51.4,34.4,29.96,West,270,0.7,2.2,52,0.00,,,0.00,pywws,2013-03-31 19:44:00,
2013-03-31 15:49:00,51.4,34.4,29.96,SSW,202,1.6,2.2,52,0.00,,,0.00,pywws,2013-03-31 19:49:00,
2013-03-31 15:55:00,51.6,34.6,29.96,SE,135,2.2,4.5,52,0.00,,,0.00,pywws,2013-03-31 19:55:00,
2013-03-31 16:01:00,51.4,34.4,29.95,SW,225,4.5,6.9,52,0.00,,,0.00,pywws,2013-03-31 20:01:00,
2013-03-31 16:06:00,51.1,34.6,29.94,South,180,1.6,3.1,53,0.00,,,0.00,pywws,2013-03-31 20:06:00,
2013-03-31 16:12:00,51.1,34.6,29.93,SW,225,3.1,5.4,53,0.00,,,0.00,pywws,2013-03-31 20:12:00,
2013-03-31 16:17:00,51.1,34.6,29.93,NW,315,3.1,5.4,53,0.00,,,0.00,pywws,2013-03-31 20:17:00,
2013-03-31 16:23:00,51.1,34.6,29.93,SE,135,1.6,2.2,53,0.00,,,0.00,pywws,2013-03-31 20:23:00,
2013-03-31 16:29:00,51.3,34.7,29.93,NW,315,1.6,3.1,53,0.00,,,0.00,pywws,2013-03-31 20:29:00,
2013-03-31 16:34:00,51.1,34.1,29.93,SW,225,1.6,3.1,52,0.00,,,0.00,pywws,2013-03-31 20:34:00,
2013-03-31 16:40:00,50.5,33.6,29.93,SW,225,3.1,4.5,52,0.00,,,0.00,pywws,2013-03-31 20:40:00,
2013-03-31 16:45:00,50.2,33.2,29.93,SW,225,2.2,6.0,52,0.00,,,0.00,pywws,2013-03-31 20:45:00,
2013-03-31 16:51:00,50.2,33.2,29.93,South,180,1.6,3.1,52,0.00,,,0.00,pywws,2013-03-31 20:51:00,
2013-03-31 16:57:00,50.5,34.1,29.92,South,180,2.2,3.8,53,0.00,,,0.00,pywws,2013-03-31 20:57:00,
2013-03-31 17:02:00,50.4,33.4,29.92,West,270,3.1,6.0,52,0.00,,,0.00,pywws,2013-03-31 21:02:00,
2013-03-31 17:08:00,50.2,33.2,29.93,East,90,2.2,3.8,52,0.00,,,0.00,pywws,2013-03-31 21:08:00,
2013-03-31 17:14:00,50.2,33.2,29.92,SW,225,3.8,6.0,52,0.00,,,0.00,pywws,2013-03-31 21:14:00,
2013-03-31 17:20:00,50.2,33.7,29.92,South,180,3.1,5.4,53,0.00,,,0.00,pywws,2013-03-31 21:20:00,
2013-03-31 17:25:00,50.4,33.9,29.91,West,270,2.2,3.1,53,0.00,,,0.00,pywws,2013-03-31 21:25:00,
2013-03-31 17:31:00,50.2,33.7,29.91,East,90,3.1,4.5,53,0.00,,,0.00,pywws,2013-03-31 21:31:00,
2013-03-31 17:37:00,50.0,34.0,29.91,SSE,158,1.6,3.1,54,0.00,,,0.00,pywws,2013-03-31 21:37:00,
2013-03-31 17:42:00,50.0,34.0,29.90,South,180,1.6,3.1,54,0.00,,,0.00,pywws,2013-03-31 21:42:00,
2013-03-31 17:48:00,50.0,34.0,29.90,NE,45,3.1,3.8,54,0.00,,,0.00,pywws,2013-03-31 21:48:00,
2013-03-31 17:54:00,49.6,34.6,29.90,SW,225,3.1,4.5,56,0.00,,,0.00,pywws,2013-03-31 21:54:00,
2013-03-31 18:00:00,49.3,34.7,29.89,North,0,1.6,2.2,57,0.00,,,0.00,pywws,2013-03-31 22:00:00,
2013-03-31 18:05:00,49.1,34.5,29.89,West,270,0.7,2.2,57,0.00,,,0.00,pywws,2013-03-31 22:05:00,
2013-03-31 18:11:00,48.9,34.8,29.89,North,0,2.2,3.8,58,0.00,,,0.00,pywws,2013-03-31 22:11:00,
2013-03-31 18:17:00,48.7,35.5,29.88,SW,225,1.6,3.1,60,0.00,,,0.00,pywws,2013-03-31 22:17:00,
2013-03-31 18:22:00,48.6,35.7,29.88,South,180,2.2,3.1,61,0.00,,,0.00,pywws,2013-03-31 22:22:00,
2013-03-31 18:28:00,48.4,36.0,29.88,SW,225,1.6,3.1,62,0.00,,,0.00,pywws,2013-03-31 22:28:00,
2013-03-31 18:34:00,48.2,36.2,29.87,South,180,1.6,2.2,63,0.00,,,0.00,pywws,2013-03-31 22:34:00,
2013-03-31 18:40:00,48.2,36.2,29.88,South,180,2.2,3.1,63,0.00,,,0.00,pywws,2013-03-31 22:40:00,
2013-03-31 18:45:00,48.0,36.8,29.87,West,270,0.7,2.2,65,0.00,,,0.00,pywws,2013-03-31 22:45:00,
2013-03-31 18:52:00,47.8,36.7,29.86,WSW,248,0.7,1.6,65,0.00,,,0.00,pywws,2013-03-31 22:52:00,
2013-03-31 18:57:00,47.8,36.7,29.85,West,270,0.7,2.2,65,0.00,,,0.00,pywws,2013-03-31 22:57:00,
2013-03-31 19:03:00,47.7,36.9,29.85,NE,45,0.7,1.6,66,0.00,,,0.00,pywws,2013-03-31 23:03:00,
2013-03-31 19:09:00,47.7,36.9,29.84,NW,315,1.6,3.1,66,0.00,,,0.00,pywws,2013-03-31 23:09:00,
2013-03-31 19:14:00,47.5,36.7,29.83,West,270,1.6,3.1,66,0.00,,,0.00,pywws,2013-03-31 23:14:00,
2013-03-31 19:20:00,47.5,37.1,29.83,South,180,1.6,2.2,67,0.00,,,0.00,pywws,2013-03-31 23:20:00,
2013-03-31 19:25:00,47.3,37.3,29.83,East,90,0.7,1.6,68,0.00,,,0.00,pywws,2013-03-31 23:25:00,
2013-03-31 19:31:00,47.1,37.1,29.82,South,180,1.6,2.2,68,0.00,,,0.00,pywws,2013-03-31 23:31:00,
2013-03-31 19:37:00,47.1,37.1,29.82,West,270,3.1,3.8,68,0.00,,,0.00,pywws,2013-03-31 23:37:00,
2013-03-31 19:42:00,47.3,37.3,29.82,East,90,2.2,4.5,68,0.00,,,0.00,pywws,2013-03-31 23:42:00,
2013-03-31 19:48:00,47.3,37.3,29.81,NW,315,0.7,1.6,68,0.00,,,0.00,pywws,2013-03-31 23:48:00,
2013-03-31 19:54:00,47.1,37.1,29.80,SW,225,2.2,4.5,68,0.00,,,0.00,pywws,2013-03-31 23:54:00,
2013-03-31 20:00:00,46.9,37.3,29.81,South,180,2.2,3.8,69,0.00,,,0.00,pywws,2013-04-01 00:00:00,
2013-03-31 20:05:00,46.8,37.5,29.80,SE,135,2.2,4.5,70,0.00,,,0.00,pywws,2013-04-01 00:05:00,
2013-03-31 20:11:00,46.8,37.5,29.80,SW,225,0.7,1.6,70,0.00,,,0.00,pywws,2013-04-01 00:11:00,
2013-03-31 20:17:00,46.6,37.7,29.80,SW,225,1.6,4.5,71,0.00,,,0.00,pywws,2013-04-01 00:17:00,
2013-03-31 20:22:00,46.4,38.2,29.80,NE,45,1.6,2.2,73,0.00,,,0.00,pywws,2013-04-01 00:22:00,
2013-03-31 20:28:00,45.9,38.0,29.79,WSW,248,2.2,3.1,74,0.00,,,0.00,pywws,2013-04-01 00:28:00,
2013-03-31 20:34:00,45.5,38.4,29.79,SW,225,1.6,2.2,76,0.00,,,0.00,pywws,2013-04-01 00:34:00,
2013-03-31 20:40:00,45.3,38.9,29.79,WSW,248,0.7,2.2,78,0.00,,,0.00,pywws,2013-04-01 00:40:00,
2013-03-31 20:45:00,45.0,38.8,29.79,SW,225,1.6,2.2,79,0.00,,,0.00,pywws,2013-04-01 00:45:00,
2013-03-31 20:51:00,44.8,39.3,29.79,SW,225,0.7,1.6,81,0.00,,,0.00,pywws,2013-04-01 00:51:00,
2013-03-31 20:57:00,44.4,39.6,29.78,NW,315,0.7,1.6,83,0.01,,,0.01,pywws,2013-04-01 00:57:00,
2013-03-31 21:02:00,44.1,39.2,29.78,SW,225,1.6,3.1,83,0.01,,,0.01,pywws,2013-04-01 01:02:00,
2013-03-31 21:08:00,43.9,39.4,29.78,North,0,0.7,2.2,84,0.02,,,0.02,pywws,2013-04-01 01:08:00,
2013-03-31 21:14:00,43.7,39.5,29.78,North,0,0.0,0.7,85,0.02,,,0.02,pywws,2013-04-01 01:14:00,
2013-03-31 21:20:00,43.5,39.6,29.78,West,270,0.7,2.2,86,0.02,,,0.02,pywws,2013-04-01 01:20:00,
2013-03-31 21:25:00,43.3,39.7,29.78,SW,225,0.7,2.2,87,0.04,,,0.04,pywws,2013-04-01 01:25:00,
2013-03-31 21:31:00,43.3,39.7,29.77,West,270,0.7,2.2,87,0.04,,,0.04,pywws,2013-04-01 01:31:00,
2013-03-31 21:37:00,43.3,40.0,29.77,SW,225,1.6,3.1,88,0.04,,,0.04,pywws,2013-04-01 01:37:00,
2013-03-31 21:42:00,43.3,40.0,29.76,SE,135,1.6,2.2,88,0.04,,,0.04,pywws,2013-04-01 01:42:00,
2013-03-31 21:48:00,43.3,40.3,29.76,South,180,0.7,1.6,89,0.04,,,0.04,pywws,2013-04-01 01:48:00,
2013-03-31 21:54:00,43.3,40.3,29.75,NW,315,0.7,1.6,89,0.05,,,0.05,pywws,2013-04-01 01:54:00,
2013-03-31 22:00:00,43.2,40.1,29.75,SW,225,1.6,3.1,89,0.04,,,0.05,pywws,2013-04-01 02:00:00,
2013-03-31 22:06:00,43.2,40.1,29.75,SW,225,1.6,3.1,89,0.02,,,0.05,pywws,2013-04-01 02:06:00,
2013-03-31 22:11:00,43.2,40.4,29.75,West,270,0.0,0.7,90,0.02,,,0.05,pywws,2013-04-01 02:11:00,
2013-03-31 22:17:00,43.2,40.4,29.75,SE,135,0.0,0.7,90,0.02,,,0.05,pywws,2013-04-01 02:17:00,
2013-03-31 22:22:00,43.2,40.4,29.74,NE,45,0.0,0.7,90,0.02,,,0.05,pywws,2013-04-01 02:22:00,
2013-03-31 22:28:00,43.2,40.4,29.74,NE,45,0.0,0.0,90,0.02,,,0.06,pywws,2013-04-01 02:28:00,
2013-03-31 22:34:00,43.2,40.4,29.73,NE,45,0.0,0.0,90,0.02,,,0.06,pywws,2013-04-01 02:34:00,
2013-03-31 22:40:00,43.2,40.4,29.72,North,0,0.0,0.0,90,0.02,,,0.06,pywws,2013-04-01 02:40:00,
2013-03-31 22:45:00,43.2,40.4,29.72,NE,45,0.0,0.0,90,0.02,,,0.06,pywws,2013-04-01 02:45:00,
2013-03-31 22:51:00,43.2,40.7,29.72,NW,315,0.0,0.0,91,0.01,,,0.06,pywws,2013-04-01 02:51:00,
2013-03-31 22:57:00,43.2,40.7,29.72,NE,45,0.0,0.0,91,0.01,,,0.06,pywws,2013-04-01 02:57:00,
2013-03-31 23:02:00,43.0,40.5,29.72,NW,315,0.0,0.0,91,0.01,,,0.06,pywws,2013-04-01 03:02:00,
2013-03-31 23:08:00,43.0,40.5,29.72,North,0,0.0,0.0,91,0.01,,,0.06,pywws,2013-04-01 03:08:00,
2013-03-31 23:14:00,43.0,40.5,29.72,North,0,0.0,0.0,91,0.01,,,0.06,pywws,2013-04-01 03:14:00,
2013-03-31 23:20:00,43.0,40.5,29.71,NW,315,0.0,0.0,91,0.01,,,0.06,pywws,2013-04-01 03:20:00,
2013-03-31 23:25:00,43.0,40.5,29.71,North,0,0.0,0.0,91,0.00,,,0.06,pywws,2013-04-01 03:25:00,
2013-03-31 23:31:00,43.0,40.5,29.70,East,90,0.0,0.0,91,0.00,,,0.06,pywws,2013-04-01 03:31:00,
2013-03-31 23:37:00,43.0,40.5,29.70,NE,45,0.0,0.0,91,0.00,,,0.06,pywws,2013-04-01 03:37:00,
2013-03-31 23:42:00,43.0,40.8,29.70,North,0,0.0,0.0,92,0.00,,,0.06,pywws,2013-04-01 03:42:00,
2013-03-31 23:49:00,43.0,40.8,29.70,North,0,0.0,0.0,92,0.00,,,0.06,pywws,2013-04-01 03:49:00,
2013-03-31 23:54:00,43.0,40.8,29.70,North,0,0.0,0.0,92,0.00,,,0.06,pywws,2013-04-01 03:54:00,